Time;durP1;ratioP1;P1;durP2;ratioP2;P2;SDS_P1;SDS_P2;PMS_P1;PMS_P2;Temp;Humidity;BMP_temperature;BMP_pressure;BME280_temperature;BME280_humidity;BME280_pressure;Samples;Min_cycle;Max_cycle;Signal;HPM_P1;HPM_P2
2023/01/17 00:02:24;;;;;;;7.85;1.83;;;4.20;99.90;;;;;;4921810;29;20055;-80
2023/01/17 00:10:25;;;;;;;13.88;1.52;;;4.20;99.90;;;;;;4922480;29;20063;-80
2023/01/17 00:12:56;;;;;;;8.60;1.30;;;4.20;99.90;;;;;;4922673;29;20051;-80
2023/01/17 00:15:23;;;;;;;6.20;0.75;;;4.10;99.90;;;;;;4939737;29;20043;-80
2023/01/17 00:17:49;;;;;;;8.10;1.27;;;4.20;99.90;;;;;;4939564;29;20511;-80
2023/01/17 00:26:03;;;;;;;6.75;1.05;;;4.30;99.90;;;;;;4939540;29;20123;-80
2023/01/17 01:33:52;;;;;;;11.38;1.75;;;4.40;99.90;;;;;;4957390;28;20055;-80
2023/01/17 01:36:21;;;;;;;9.38;1.38;;;4.50;99.90;;;;;;4957419;29;20051;-80
2023/01/17 01:38:47;;;;;;;11.70;1.35;;;4.50;99.90;;;;;;4957210;28;20047;-80
2023/01/17 01:41:12;;;;;;;5.82;1.23;;;4.60;99.90;;;;;;4957123;28;20051;-79
2023/01/17 01:43:40;;;;;;;19.15;2.10;;;4.50;99.90;;;;;;4939820;29;20097;-80
2023/01/17 01:46:08;;;;;;;11.10;2.05;;;4.50;99.90;;;;;;4957102;29;20508;-79
2023/01/17 01:48:41;;;;;;;4.80;0.60;;;4.60;99.90;;;;;;4940094;29;20047;-79
2023/01/17 01:51:11;;;;;;;7.25;0.88;;;4.70;99.90;;;;;;4957189;28;20047;-79
2023/01/17 01:53:43;;;;;;;12.10;2.22;;;4.70;99.90;;;;;;4957097;28;20050;-79
2023/01/17 01:56:12;;;;;;;5.70;1.42;;;4.70;99.90;;;;;;4956976;29;20442;-79
2023/01/17 01:58:40;;;;;;;9.02;1.15;;;4.70;99.90;;;;;;4939638;29;20130;-79
2023/01/17 02:01:08;;;;;;;11.73;0.80;;;4.80;99.90;;;;;;4956654;29;20384;-79
2023/01/17 02:03:34;;;;;;;9.55;0.88;;;4.80;99.90;;;;;;4956862;28;20054;-79
2023/01/17 02:06:14;;;;;;;8.85;1.00;;;4.70;99.90;;;;;;4956837;29;20147;-79
2023/01/17 02:08:40;;;;;;;2.95;0.73;;;4.80;99.90;;;;;;4956962;28;20500;-79
2023/01/17 02:11:09;;;;;;;9.32;1.05;;;4.80;99.90;;;;;;4956644;29;20136;-79
2023/01/17 02:13:35;;;;;;;20.88;1.92;;;4.80;99.90;;;;;;4956426;29;20075;-79
2023/01/17 02:16:09;;;;;;;4.25;0.75;;;4.80;99.90;;;;;;4939431;29;20043;-79
2023/01/17 02:19:00;;;;;;;15.60;1.50;;;4.70;99.90;;;;;;4957083;29;20051;-79
2023/01/17 02:21:34;;;;;;;10.38;1.63;;;4.80;99.90;;;;;;4956445;29;20051;-79
2023/01/17 02:24:12;;;;;;;11.95;1.48;;;4.80;99.90;;;;;;4938409;29;20551;-79
2023/01/17 02:26:47;;;;;;;9.27;0.98;;;4.80;99.90;;;;;;4956500;29;20051;-79
2023/01/17 02:29:49;;;;;;;6.47;1.40;;;4.80;99.90;;;;;;4938756;29;20055;-79
2023/01/17 02:32:29;;;;;;;4.15;1.17;;;4.80;99.90;;;;;;4956441;28;20035;-79
2023/01/17 02:35:31;;;;;;;26.77;2.10;;;4.80;99.90;;;;;;4956754;28;20130;-79
2023/01/17 02:38:36;;;;;;;8.38;0.85;;;4.80;99.90;;;;;;4952789;28;20059;-79
2023/01/17 02:41:18;;;;;;;12.40;1.50;;;4.90;99.90;;;;;;4955406;29;20061;-79
2023/01/17 02:43:54;;;;;;;8.75;1.40;;;4.90;99.90;;;;;;4956041;28;20058;-79
2023/01/17 02:46:58;;;;;;;9.88;1.10;;;4.90;99.90;;;;;;4938732;29;20035;-78
2023/01/17 02:49:31;;;;;;;6.90;0.80;;;4.90;99.90;;;;;;4955976;28;20050;-78
2023/01/17 02:56:15;;;;;;;12.18;1.20;;;4.90;99.90;;;;;;4915688;29;19918;-79
2023/01/17 02:59:34;;;;;;;12.85;1.80;;;4.90;99.90;;;;;;4899631;29;20060;-79
2023/01/17 03:02:37;;;;;;;15.43;1.77;;;4.90;99.90;;;;;;4822786;29;20100;-79
2023/01/17 03:22:11;;;;;;;6.30;0.80;;;4.90;99.90;;;;;;5271158;23;20063;-79
2023/01/17 03:25:06;;;;;;;6.50;0.93;;;4.90;99.90;;;;;;4919152;29;20071;-79
2023/01/17 03:27:49;;;;;;;10.80;1.35;;;4.90;99.90;;;;;;4919296;29;20047;-79
2023/01/17 03:30:16;;;;;;;14.23;1.42;;;4.90;99.90;;;;;;4936421;29;20131;-79
2023/01/17 03:32:42;;;;;;;7.90;1.10;;;4.90;99.90;;;;;;4936256;29;20040;-79
2023/01/17 03:35:08;;;;;;;7.22;0.90;;;4.80;99.90;;;;;;4937463;29;20402;-79
2023/01/17 03:37:40;;;;;;;6.72;1.00;;;4.80;99.90;;;;;;5324092;23;20051;-79
2023/01/17 03:44:12;;;;;;;4.05;0.63;;;4.70;99.90;;;;;;4921151;29;20400;-79
2023/01/17 03:47:17;;;;;;;7.22;1.15;;;4.70;99.90;;;;;;4920739;29;20490;-79
2023/01/17 03:53:38;;;;;;;7.30;0.95;;;4.70;99.90;;;;;;5061397;23;20102;-79
2023/01/17 03:56:39;;;;;;;5.57;1.30;;;4.70;99.90;;;;;;4941734;29;20051;-79
2023/01/17 03:59:38;;;;;;;5.88;1.00;;;4.70;99.90;;;;;;4867425;28;20066;-79
2023/01/17 04:05:02;;;;;;;7.90;0.55;;;4.70;99.90;;;;;;5351366;23;20055;-78
2023/01/17 04:08:05;;;;;;;10.88;0.85;;;4.70;99.90;;;;;;4938026;29;20488;-79
2023/01/17 04:17:19;;;;;;;6.45;0.60;;;4.60;99.90;;;;;;5372803;23;20051;-79
2023/01/17 04:19:53;;;;;;;9.50;1.10;;;4.60;99.90;;;;;;4936869;29;20044;-79
2023/01/17 04:28:36;;;;;;;6.10;1.13;;;4.60;99.90;;;;;;4918346;27;20527;-79
2023/01/17 04:31:02;;;;;;;4.22;0.47;;;4.60;99.90;;;;;;4903318;29;20044;-79
2023/01/17 04:33:33;;;;;;;8.57;0.98;;;4.60;99.90;;;;;;4920335;29;20051;-79
2023/01/17 04:35:58;;;;;;;5.95;0.98;;;4.50;99.90;;;;;;4920264;29;20055;-79
2023/01/17 04:38:49;;;;;;;8.75;0.77;;;4.60;99.90;;;;;;5076348;23;20007;-78
2023/01/17 04:41:19;;;;;;;4.32;0.65;;;4.50;99.90;;;;;;5015836;23;20048;-79
2023/01/17 04:43:45;;;;;;;7.72;0.63;;;4.40;99.90;;;;;;4922272;29;20051;-79
2023/01/17 04:50:00;;;;;;;10.85;1.60;;;4.30;99.90;;;;;;5782881;23;20126;-78
2023/01/17 04:53:46;;;;;;;8.10;1.10;;;4.10;99.90;;;;;;4922033;29;20056;-78
2023/01/17 04:56:13;;;;;;;8.93;0.88;;;4.10;99.90;;;;;;4921760;29;20103;-79
2023/01/17 05:02:54;;;;;;;9.82;1.25;;;4.30;99.90;;;;;;4938668;29;20058;-79
2023/01/17 05:05:35;;;;;;;4.00;0.50;;;4.40;99.90;;;;;;4938498;29;20488;-79
2023/01/17 05:11:25;;;;;;;6.95;0.50;;;4.50;99.90;;;;;;4945343;23;20118;-79
2023/01/17 05:13:50;;;;;;;11.95;1.33;;;4.50;99.90;;;;;;4938300;29;20061;-79
2023/01/17 05:16:20;;;;;;;8.75;1.05;;;4.50;99.90;;;;;;4938238;29;20052;-79
2023/01/17 05:18:45;;;;;;;6.38;1.35;;;4.50;99.90;;;;;;4938392;29;20051;-78
2023/01/17 05:21:11;;;;;;;10.50;0.60;;;4.50;99.90;;;;;;4937379;29;20055;-78
2023/01/17 05:26:13;;;;;;;4.10;0.52;;;4.40;99.90;;;;;;5002774;23;20055;-78
2023/01/17 05:28:40;;;;;;;4.55;0.40;;;4.40;99.90;;;;;;4957137;29;20110;-78
2023/01/17 05:31:08;;;;;;;5.85;0.50;;;4.30;99.90;;;;;;4940075;29;20101;-79
2023/01/17 05:33:41;;;;;;;4.20;0.30;;;4.30;99.90;;;;;;4957098;29;20418;-79
2023/01/17 05:40:14;;;;;;;3.17;0.95;;;4.30;99.90;;;;;;5607572;23;20018;-78
2023/01/17 05:45:43;;;;;;;5.70;0.50;;;4.20;99.90;;;;;;5121620;23;20055;-78
2023/01/17 05:48:09;;;;;;;1.02;0.30;;;4.20;99.90;;;;;;5263536;23;20399;-79
2023/01/17 05:50:36;;;;;;;6.30;0.93;;;4.20;99.90;;;;;;4936809;29;20134;-79
2023/01/17 05:53:13;;;;;;;4.85;0.52;;;4.20;99.90;;;;;;4937902;29;20512;-79
2023/01/17 05:55:43;;;;;;;9.95;1.75;;;4.20;99.90;;;;;;4937049;29;20056;-79
2023/01/17 05:58:15;;;;;;;8.55;1.13;;;4.20;99.90;;;;;;4937524;29;20048;-79
2023/01/17 06:00:47;;;;;;;3.28;0.47;;;4.20;99.90;;;;;;4937615;29;20050;-79
2023/01/17 06:03:14;;;;;;;7.32;0.63;;;4.20;99.90;;;;;;5585688;23;20042;-78
2023/01/17 06:05:43;;;;;;;3.78;0.75;;;4.20;99.90;;;;;;4937721;29;20039;-79
2023/01/17 06:08:12;;;;;;;3.67;0.70;;;4.20;99.90;;;;;;4937193;29;20130;-79
2023/01/17 06:10:38;;;;;;;5.43;0.73;;;4.20;99.90;;;;;;4937844;29;20496;-79
2023/01/17 06:13:11;;;;;;;5.25;0.60;;;4.10;99.90;;;;;;4937170;29;20048;-79
2023/01/17 06:18:16;;;;;;;5.35;0.55;;;4.10;99.90;;;;;;5160057;23;20063;-78
2023/01/17 06:20:43;;;;;;;5.20;0.50;;;4.10;99.90;;;;;;4935874;29;20499;-79
2023/01/17 06:23:20;;;;;;;10.85;1.02;;;4.10;99.90;;;;;;4936772;29;20484;-79
2023/01/17 06:25:47;;;;;;;11.63;1.05;;;4.00;99.90;;;;;;4935839;29;20099;-79
2023/01/17 06:28:20;;;;;;;8.05;0.80;;;4.00;99.90;;;;;;5290193;23;20057;-78
2023/01/17 06:30:49;;;;;;;3.20;0.55;;;4.00;99.90;;;;;;4920069;29;20399;-79
2023/01/17 06:33:18;;;;;;;3.30;0.70;;;3.80;99.90;;;;;;4920018;29;20079;-79
2023/01/17 06:36:02;;;;;;;4.00;0.65;;;3.70;99.90;;;;;;4936845;29;20138;-78
2023/01/17 06:41:47;;;;;;;0.20;0.10;;;3.50;99.90;;;;;;5271977;23;20056;-78
2023/01/17 06:50:48;;;;;;;4.63;0.85;;;3.10;99.90;;;;;;4935311;29;20111;-79
2023/01/17 06:56:18;;;;;;;6.22;0.55;;;3.10;99.90;;;;;;4919275;29;20059;-79
2023/01/17 06:59:28;;;;;;;5.95;0.40;;;3.10;99.90;;;;;;4935007;29;20040;-79
2023/01/17 07:02:26;;;;;;;2.88;0.30;;;3.10;99.90;;;;;;4936255;29;20479;-79
2023/01/17 07:08:32;;;;;;;3.53;0.60;;;3.00;99.90;;;;;;5111471;23;20055;-79
2023/01/17 07:11:11;;;;;;;10.30;1.05;;;3.10;99.90;;;;;;4936056;29;20052;-79
2023/01/17 07:13:38;;;;;;;5.85;0.90;;;3.10;99.90;;;;;;4936748;29;20051;-79
2023/01/17 07:16:51;;;;;;;11.30;0.65;;;3.10;99.90;;;;;;4936451;29;20070;-80
2023/01/17 07:19:17;;;;;;;3.65;0.30;;;3.10;99.90;;;;;;4859270;29;20093;-79
2023/01/17 07:21:43;;;;;;;0.82;0.10;;;3.00;99.90;;;;;;4869384;29;20089;-80
2023/01/17 07:24:09;;;;;;;3.10;1.05;;;3.00;99.90;;;;;;4936371;29;20107;-79
2023/01/17 07:26:36;;;;;;;0.98;0.30;;;2.90;99.90;;;;;;4936396;29;20047;-79
2023/01/17 07:29:08;;;;;;;1.75;0.17;;;2.90;99.90;;;;;;4935174;29;20094;-79
2023/01/17 07:31:37;;;;;;;1.45;0.15;;;2.90;99.90;;;;;;4936142;29;20047;-79
2023/01/17 07:45:13;;;;;;;5.10;0.88;;;3.00;99.90;;;;;;4935688;29;20057;-80
2023/01/17 07:47:45;;;;;;;3.08;0.50;;;3.00;99.90;;;;;;4934599;29;20051;-80
2023/01/17 07:50:14;;;;;;;3.50;0.47;;;3.10;99.90;;;;;;4935934;29;20484;-80
2023/01/17 07:53:17;;;;;;;9.50;0.77;;;3.10;99.90;;;;;;4935680;29;20047;-80
2023/01/17 07:59:25;;;;;;;8.00;0.80;;;3.10;99.90;;;;;;5120405;23;20110;-80
2023/01/17 08:04:48;;;;;;;4.07;0.60;;;3.20;99.90;;;;;;5176002;23;20057;-80
2023/01/17 08:07:14;;;;;;;8.05;0.77;;;3.30;99.90;;;;;;4916527;29;20048;-79
2023/01/17 08:09:41;;;;;;;2.20;0.38;;;3.40;99.90;;;;;;4916538;29;20428;-79
2023/01/17 08:12:07;;;;;;;7.03;0.93;;;3.50;99.90;;;;;;4899608;29;20056;-79
2023/01/17 08:14:33;;;;;;;1.98;0.30;;;3.50;99.90;;;;;;4899353;29;20135;-80
2023/01/17 08:17:06;;;;;;;2.50;0.40;;;3.60;99.90;;;;;;4916287;29;20055;-79
2023/01/17 08:19:32;;;;;;;4.72;1.10;;;3.70;99.90;;;;;;4916732;29;20048;-78
2023/01/17 08:21:57;;;;;;;3.38;0.40;;;3.70;99.90;;;;;;4917026;29;20139;-79
2023/01/17 08:24:23;;;;;;;1.85;0.40;;;3.70;99.90;;;;;;4920151;29;20044;-78
2023/01/17 08:26:49;;;;;;;4.55;0.52;;;3.60;99.90;;;;;;4902998;29;20440;-80
2023/01/17 08:29:15;;;;;;;5.32;0.35;;;3.60;99.90;;;;;;4920068;29;20063;-81
2023/01/17 08:31:40;;;;;;;6.63;0.70;;;3.50;99.90;;;;;;4919770;29;20047;-80
2023/01/17 08:34:06;;;;;;;5.50;0.77;;;3.30;99.90;;;;;;4920158;29;20105;-79
2023/01/17 08:36:36;;;;;;;8.07;1.58;;;3.20;99.90;;;;;;4902967;29;20056;-79
2023/01/17 08:39:05;;;;;;;5.50;0.55;;;3.20;99.90;;;;;;4919829;29;20048;-79
2023/01/17 08:41:31;;;;;;;4.43;0.82;;;3.10;99.90;;;;;;4919935;29;20048;-78
2023/01/17 08:43:57;;;;;;;6.45;0.50;;;3.10;99.90;;;;;;4919694;29;20392;-77
2023/01/17 08:46:23;;;;;;;1.45;0.40;;;3.20;99.90;;;;;;4919771;29;20052;-78
2023/01/17 08:49:09;;;;;;;6.47;0.70;;;3.10;99.90;;;;;;4919665;29;20036;-79
2023/01/17 08:51:35;;;;;;;3.72;0.93;;;3.10;99.90;;;;;;4919466;29;20126;-79
2023/01/17 08:54:04;;;;;;;5.45;0.98;;;3.20;99.90;;;;;;4902247;29;20123;-79
2023/01/17 08:56:29;;;;;;;2.20;0.50;;;3.20;99.90;;;;;;4919460;29;20044;-79
2023/01/17 09:01:40;;;;;;;5.75;0.60;;;3.30;99.90;;;;;;5013203;23;20411;-79
2023/01/17 09:04:10;;;;;;;5.07;0.70;;;3.40;99.90;;;;;;4940084;29;20055;-79
2023/01/17 09:06:48;;;;;;;7.10;0.82;;;3.40;99.90;;;;;;4957302;29;20514;-80
2023/01/17 09:12:57;;;;;;;2.97;0.40;;;3.60;99.90;;;;;;5149439;23;20083;-79
2023/01/17 09:15:23;;;;;;;1.38;0.20;;;3.70;99.90;;;;;;4921061;29;20047;-80
2023/01/17 09:17:52;;;;;;;0.10;0.10;;;3.60;99.90;;;;;;4937951;29;20554;-79
2023/01/17 09:20:18;;;;;;;0.73;0.10;;;3.50;99.90;;;;;;4937994;29;20083;-81
2023/01/17 09:22:44;;;;;;;1.20;0.13;;;3.50;99.90;;;;;;4920500;29;20098;-79
2023/01/17 09:25:12;;;;;;;0.30;0.10;;;3.30;99.90;;;;;;4938162;29;20044;-79
2023/01/17 09:27:38;;;;;;;0.35;0.10;;;3.20;99.90;;;;;;4938110;29;20058;-79
2023/01/17 09:30:04;;;;;;;0.50;0.10;;;3.10;99.90;;;;;;4920934;29;20048;-82
2023/01/17 09:32:29;;;;;;;0.32;0.10;;;3.00;99.90;;;;;;4920732;29;20083;-82
2023/01/17 09:34:59;;;;;;;1.75;0.10;;;2.80;99.90;;;;;;4937768;29;20468;-79
2023/01/17 09:38:06;;;;;;;0.38;0.10;;;2.80;99.90;;;;;;5000342;23;20055;-80
2023/01/17 09:43:39;;;;;;;0.68;0.13;;;2.80;99.90;;;;;;5352173;23;20056;-79
2023/01/17 09:46:12;;;;;;;1.30;0.20;;;2.70;99.90;;;;;;4936000;29;20582;-80
2023/01/17 10:07:39;;;;;;;2.08;0.25;;;3.10;99.90;;;;;;4937226;29;20103;-81
2023/01/17 10:20:57;;;;;;;2.20;0.20;;;3.00;99.90;;;;;;5103953;23;20055;-81
2023/01/17 10:23:51;;;;;;;2.00;0.20;;;2.90;99.90;;;;;;4938696;29;20388;-81
2023/01/17 10:26:22;;;;;;;3.15;0.57;;;2.90;99.90;;;;;;4955937;29;20054;-81
2023/01/17 10:28:56;;;;;;;4.00;0.50;;;2.90;99.90;;;;;;4939090;29;20051;-80
2023/01/17 10:31:23;;;;;;;4.75;0.60;;;2.90;99.90;;;;;;4940098;29;20036;-81
2023/01/17 10:33:52;;;;;;;2.75;0.65;;;2.90;99.90;;;;;;4938693;29;20455;-81
2023/01/17 10:49:27;;;;;;;2.85;0.65;;;2.90;99.90;;;;;;4916464;29;20052;-82
2023/01/17 10:59:32;;;;;;;3.22;0.60;;;3.50;99.90;;;;;;4900435;29;20527;-80
2023/01/17 11:09:37;;;;;;;3.92;0.80;;;4.00;99.90;;;;;;4840534;29;20080;-82
2023/01/17 11:12:03;;;;;;;4.68;0.77;;;4.10;99.90;;;;;;5072111;23;20019;-80
2023/01/17 11:28:38;;;;;;;4.88;1.05;;;4.60;99.90;;;;;;4936158;29;20133;-80
2023/01/17 11:49:34;;;;;;;4.60;0.73;;;4.60;99.90;;;;;;5969388;23;20319;31
2023/01/17 11:52:22;;;;;;;15.00;1.90;;;4.70;99.90;;;;;;4824345;29;20061;-80
2023/01/17 11:54:49;;;;;;;6.47;0.70;;;4.80;99.90;;;;;;4842103;29;20593;-79
2023/01/17 11:57:35;;;;;;;3.72;0.90;;;4.90;99.90;;;;;;4828345;29;20049;-79
2023/01/17 12:00:15;;;;;;;6.28;1.17;;;5.00;99.90;;;;;;4846019;29;20050;-80
2023/01/17 12:02:53;;;;;;;8.45;1.60;;;5.00;99.90;;;;;;4829404;29;20110;-80
2023/01/17 12:18:07;;;;;;;7.28;1.05;;;5.40;99.90;;;;;;4920223;29;20047;-80
2023/01/17 12:23:56;;;;;;;4.05;0.88;;;5.30;99.90;;;;;;4926330;23;20060;-79
2023/01/17 12:26:40;;;;;;;7.03;1.15;;;5.20;99.90;;;;;;4920142;29;20044;-79
2023/01/17 12:29:30;;;;;;;3.20;0.80;;;5.10;99.90;;;;;;4919742;29;20056;-79
2023/01/17 12:32:28;;;;;;;6.57;1.50;;;5.00;99.90;;;;;;4919953;29;20528;-79
2023/01/17 12:35:13;;;;;;;8.65;1.52;;;5.10;99.90;;;;;;4903338;29;20052;-80
2023/01/17 12:37:45;;;;;;;3.85;1.05;;;5.20;99.90;;;;;;4919710;29;20087;-81
2023/01/17 12:40:31;;;;;;;7.45;1.67;;;5.30;99.90;;;;;;4903556;29;20055;-81
2023/01/17 12:43:25;;;;;;;3.65;1.08;;;5.40;99.90;;;;;;4902794;29;20059;-81
2023/01/17 12:45:53;;;;;;;5.97;0.98;;;5.50;99.90;;;;;;4889476;29;20084;-81
2023/01/17 12:48:26;;;;;;;4.15;1.55;;;5.50;99.90;;;;;;4903037;29;20048;-81
2023/01/17 12:51:11;;;;;;;;;;;5.50;99.90;;;;;;4902825;29;20441;-81
2023/01/17 12:54:20;;;;;;;6.63;1.27;;;5.50;99.90;;;;;;4919862;29;20030;-80
2023/01/17 12:56:59;;;;;;;8.85;1.20;;;5.50;99.90;;;;;;4909431;29;20052;-81
2023/01/17 12:59:39;;;;;;;4.68;0.85;;;5.50;99.90;;;;;;4919789;29;20047;-81
2023/01/17 13:02:31;;;;;;;4.97;0.88;;;5.60;99.90;;;;;;4915961;29;20059;-79
2023/01/17 13:05:33;;;;;;;4.13;0.85;;;5.60;99.90;;;;;;4902360;29;20488;-80
2023/01/17 13:08:20;;;;;;;4.00;0.70;;;5.60;99.90;;;;;;4891530;29;20393;-80
2023/01/17 13:11:22;;;;;;;4.32;0.73;;;5.60;99.90;;;;;;4919513;29;20110;-79
2023/01/17 13:13:50;;;;;;;3.05;0.70;;;5.60;99.90;;;;;;4919604;29;20519;-79
2023/01/17 13:16:23;;;;;;;6.30;1.15;;;5.60;99.90;;;;;;4899419;23;20484;-79
2023/01/17 13:18:50;;;;;;;5.88;0.98;;;5.60;99.90;;;;;;4880400;29;20420;-79
2023/01/17 13:21:59;;;;;;;2.75;0.60;;;5.60;99.90;;;;;;4881304;29;20049;-79
2023/01/17 13:24:35;;;;;;;3.88;0.85;;;5.60;99.90;;;;;;4892282;23;20049;-79
2023/01/17 13:27:38;;;;;;;3.65;0.90;;;5.50;99.90;;;;;;4902422;29;20123;-79
2023/01/17 13:30:28;;;;;;;6.93;0.73;;;5.50;99.90;;;;;;4902505;29;20040;-79
2023/01/17 13:33:20;;;;;;;3.88;0.75;;;5.40;99.90;;;;;;4902281;29;20059;-79
2023/01/17 13:36:07;;;;;;;3.63;0.70;;;5.50;99.90;;;;;;4919313;29;20121;-79
2023/01/17 13:38:53;;;;;;;4.55;1.23;;;5.50;99.90;;;;;;4919160;29;20040;-80
2023/01/17 13:41:28;;;;;;;8.02;0.98;;;5.50;99.90;;;;;;4902265;29;20408;-79
2023/01/17 13:47:26;;;;;;;6.05;0.98;;;5.50;99.90;;;;;;4900012;29;20047;-79
2023/01/17 13:50:01;;;;;;;3.35;1.05;;;5.60;99.90;;;;;;5030344;23;20087;-79
2023/01/17 13:53:16;;;;;;;5.78;0.95;;;5.60;99.90;;;;;;4901600;29;20103;-80
2023/01/17 14:06:52;;;;;;;3.92;1.05;;;5.40;99.90;;;;;;4821556;29;20099;-79
2023/01/17 14:09:23;;;;;;;3.97;0.73;;;5.40;99.90;;;;;;4833966;29;20159;-79
2023/01/17 14:15:34;;;;;;;5.18;0.70;;;5.30;99.90;;;;;;4918190;29;20051;-79
2023/01/17 14:25:51;;;;;;;4.32;0.43;;;5.10;99.90;;;;;;4918011;29;20087;-79
2023/01/17 14:28:24;;;;;;;1.67;0.50;;;4.90;99.90;;;;;;5043924;23;20048;-79
2023/01/17 14:30:54;;;;;;;3.38;0.60;;;4.90;99.90;;;;;;4897732;29;20060;-79
2023/01/17 14:33:38;;;;;;;3.40;0.65;;;4.80;99.90;;;;;;4897901;29;20060;-79
2023/01/17 14:36:14;;;;;;;9.38;1.75;;;4.80;99.90;;;;;;4907568;23;20090;-79
2023/01/17 14:38:43;;;;;;;4.07;0.60;;;4.80;99.90;;;;;;4901752;29;20055;-79
2023/01/17 14:41:16;;;;;;;6.47;0.52;;;4.80;99.90;;;;;;4917645;29;20129;-79
2023/01/17 14:44:05;;;;;;;3.15;0.60;;;4.80;99.90;;;;;;4901034;29;20048;-79
2023/01/17 14:46:49;;;;;;;6.32;0.70;;;4.80;99.90;;;;;;4917867;29;20076;-80
2023/01/17 14:49:37;;;;;;;5.70;1.65;;;4.70;99.90;;;;;;4917571;29;20048;-80
2023/01/17 14:56:13;;;;;;;5.15;0.80;;;4.50;99.90;;;;;;4916710;29;20047;-81
2023/01/17 14:59:29;;;;;;;6.43;0.85;;;4.50;99.90;;;;;;4917296;29;20514;-79
2023/01/17 15:06:23;;;;;;;6.13;0.70;;;4.40;99.90;;;;;;4917524;29;20051;-79
2023/01/17 15:09:05;;;;;;;3.05;0.52;;;4.30;99.90;;;;;;4917333;29;20095;-80
2023/01/17 15:12:07;;;;;;;5.65;0.80;;;4.30;99.90;;;;;;4917386;29;20500;-80
2023/01/17 15:15:25;;;;;;;7.47;0.73;;;4.20;99.90;;;;;;4900387;29;20060;-80
2023/01/17 15:18:26;;;;;;;19.98;1.38;;;4.20;99.90;;;;;;4900643;29;20123;-79
2023/01/17 15:24:25;;;;;;;5.22;1.10;;;4.00;99.90;;;;;;4916023;29;20172;-79
2023/01/17 15:30:23;;;;;;;3.53;0.75;;;4.00;99.90;;;;;;4923874;23;20584;-79
2023/01/17 15:32:50;;;;;;;2.83;0.90;;;3.90;99.90;;;;;;4900147;29;20056;-79
2023/01/17 15:35:19;;;;;;;2.85;0.70;;;3.80;99.90;;;;;;4900498;29;20052;-79
2023/01/17 15:37:51;;;;;;;1.80;0.50;;;3.80;99.90;;;;;;4917204;29;20091;-79
2023/01/17 15:40:20;;;;;;;4.82;1.10;;;3.70;99.90;;;;;;4900081;29;20144;-79
2023/01/17 15:43:20;;;;;;;7.57;0.88;;;3.70;99.90;;;;;;4916721;29;20048;-79
2023/01/17 15:45:55;;;;;;;5.45;0.90;;;3.70;99.90;;;;;;4900324;29;20135;-79
2023/01/17 15:48:36;;;;;;;3.05;0.90;;;3.60;99.90;;;;;;4917101;29;20127;-79
2023/01/17 15:51:01;;;;;;;3.65;0.80;;;3.50;99.90;;;;;;4917111;29;20052;-79
2023/01/17 18:13:14;;;;;;;6.10;1.73;;;1.90;99.90;;;;;;4701731;30;20069;-78
2023/01/17 18:15:42;;;;;;;7.63;1.80;;;1.90;99.90;;;;;;4718841;30;20107;-78
2023/01/17 18:18:09;;;;;;;6.55;1.70;;;1.90;99.90;;;;;;4718373;30;20053;-79
2023/01/17 18:20:35;;;;;;;9.40;2.55;;;1.90;99.90;;;;;;4718558;30;20056;-79
2023/01/17 18:23:00;;;;;;;6.60;2.70;;;1.90;99.90;;;;;;4718766;30;20057;-79
2023/01/17 18:25:26;;;;;;;5.60;2.30;;;1.80;99.90;;;;;;4718721;30;20049;-78
2023/01/17 18:27:54;;;;;;;7.63;2.60;;;1.80;99.90;;;;;;4718591;30;20106;-79
2023/01/17 18:30:21;;;;;;;6.05;2.33;;;1.80;99.90;;;;;;4718503;30;20049;-79
2023/01/17 18:32:50;;;;;;;8.88;2.92;;;1.80;99.90;;;;;;4718453;30;20053;-79
2023/01/17 18:35:18;;;;;;;10.82;2.72;;;1.80;99.90;;;;;;4718364;30;20053;-79
2023/01/17 18:37:49;;;;;;;9.23;2.88;;;1.80;99.90;;;;;;4718378;30;20179;-78
2023/01/17 18:45:25;;;;;;;8.13;3.55;;;1.80;99.90;;;;;;4966084;24;20057;-78
2023/01/17 18:47:51;;;;;;;9.85;3.25;;;1.80;99.90;;;;;;4737018;30;20071;-79
2023/01/17 18:50:16;;;;;;;8.18;3.30;;;1.80;99.90;;;;;;4753422;30;20056;-78
2023/01/17 18:52:45;;;;;;;7.15;2.78;;;1.90;99.90;;;;;;4751686;30;20157;-78
2023/01/17 18:55:14;;;;;;;8.65;2.88;;;1.80;99.90;;;;;;4752949;30;20052;-78
2023/01/17 19:05:42;;;;;;;7.03;2.45;;;1.90;99.90;;;;;;5045220;24;20064;-78
2023/01/17 19:08:19;;;;;;;8.63;1.77;;;1.90;99.90;;;;;;4758762;24;20144;-79
2023/01/17 19:10:47;;;;;;;9.07;1.95;;;1.90;99.90;;;;;;4757659;24;20060;-79
2023/01/17 19:13:13;;;;;;;12.68;1.80;;;1.90;99.90;;;;;;4737062;30;20412;-78
2023/01/17 19:15:40;;;;;;;5.03;1.80;;;1.80;99.90;;;;;;4752824;30;20406;-79
2023/01/17 19:18:09;;;;;;;5.45;1.83;;;1.80;99.90;;;;;;4751680;30;20079;-79
2023/01/17 19:20:44;;;;;;;5.40;2.00;;;1.70;99.90;;;;;;4752874;30;20054;-79
2023/01/17 19:23:13;;;;;;;5.72;2.00;;;1.80;99.90;;;;;;4752710;30;20052;-79
2023/01/17 19:25:38;;;;;;;7.10;2.00;;;1.80;99.90;;;;;;4752771;30;20071;-79
2023/01/17 19:28:07;;;;;;;7.15;3.05;;;1.80;99.90;;;;;;4752800;30;20036;-79
2023/01/17 19:30:33;;;;;;;7.03;1.77;;;1.70;99.90;;;;;;4737067;30;20513;-78
2023/01/17 19:32:58;;;;;;;9.38;2.10;;;1.80;99.90;;;;;;4752673;30;20048;-78
2023/01/17 19:35:27;;;;;;;4.40;1.58;;;1.70;99.90;;;;;;4752423;30;20059;-78
2023/01/17 19:37:54;;;;;;;4.82;1.80;;;1.70;99.90;;;;;;4752801;30;20054;-78
2023/01/17 19:40:20;;;;;;;9.35;1.73;;;1.70;99.90;;;;;;4752729;30;20405;-78
2023/01/17 19:42:52;;;;;;;4.60;1.88;;;1.70;99.90;;;;;;4752483;30;20551;-79
2023/01/17 19:45:17;;;;;;;7.27;1.70;;;1.70;99.90;;;;;;4752630;30;20051;-78
2023/01/17 19:47:43;;;;;;;10.73;1.80;;;1.70;99.90;;;;;;4752543;30;20135;-78
2023/01/17 19:50:13;;;;;;;4.68;1.67;;;1.70;99.90;;;;;;4752641;30;20060;-78
2023/01/17 19:52:40;;;;;;;8.20;2.10;;;1.80;99.90;;;;;;4752271;30;20056;-77
2023/01/17 19:55:11;;;;;;;9.25;1.70;;;1.70;99.90;;;;;;4752041;30;20103;-78
2023/01/17 20:05:23;;;;;;;2.45;1.40;;;1.70;99.90;;;;;;4860408;24;20060;-78
2023/01/17 20:07:49;;;;;;;5.05;1.65;;;1.70;99.90;;;;;;4752065;30;20069;-78
2023/01/17 20:10:17;;;;;;;5.93;1.40;;;1.70;99.90;;;;;;4752602;30;20110;-78
2023/01/17 20:12:43;;;;;;;10.82;2.60;;;1.70;99.90;;;;;;4752573;30;20055;-78
2023/01/17 20:15:09;;;;;;;7.55;1.52;;;1.70;99.90;;;;;;4752393;30;20498;-79
2023/01/17 20:17:35;;;;;;;5.65;1.08;;;1.70;99.90;;;;;;4752785;30;20121;-79
2023/01/17 20:20:03;;;;;;;6.13;1.13;;;1.70;99.90;;;;;;4754716;30;20059;-79
2023/01/17 20:22:31;;;;;;;5.35;1.23;;;1.60;99.90;;;;;;4754401;30;20413;-79
2023/01/17 20:24:57;;;;;;;6.47;1.30;;;1.70;99.90;;;;;;4755663;30;20472;-79
2023/01/17 20:27:27;;;;;;;3.60;1.20;;;1.70;99.90;;;;;;4755680;30;20429;-81
2023/01/17 20:29:52;;;;;;;4.47;1.20;;;1.70;99.90;;;;;;4755773;30;20378;-80
2023/01/17 20:32:24;;;;;;;4.30;0.90;;;1.70;99.90;;;;;;4755625;30;20504;-79
2023/01/17 20:34:52;;;;;;;5.32;0.98;;;1.70;99.90;;;;;;4755284;30;20406;-80
2023/01/17 20:37:18;;;;;;;4.57;0.90;;;1.80;99.90;;;;;;4755625;30;20052;-80
2023/01/17 20:39:44;;;;;;;7.60;0.93;;;1.80;99.90;;;;;;4755299;30;20060;-79
2023/01/17 20:42:10;;;;;;;3.25;0.65;;;1.70;99.90;;;;;;4739661;30;20060;-79
2023/01/17 20:44:36;;;;;;;6.15;1.02;;;1.70;99.90;;;;;;4755529;30;20393;-79
2023/01/17 20:47:03;;;;;;;3.08;1.00;;;1.80;99.90;;;;;;4768987;30;20580;-79
2023/01/17 20:49:28;;;;;;;3.67;1.10;;;1.70;99.90;;;;;;4755435;30;20051;-79
2023/01/17 20:51:54;;;;;;;3.42;0.90;;;1.70;99.90;;;;;;4755376;30;20127;-79
2023/01/17 20:54:21;;;;;;;3.60;0.70;;;1.60;99.90;;;;;;4755297;30;20382;-79
2023/01/17 20:56:48;;;;;;;3.95;1.15;;;1.70;99.90;;;;;;4754337;30;20063;-80
2023/01/17 20:59:16;;;;;;;6.55;1.42;;;1.60;99.90;;;;;;4755074;30;20121;-80
2023/01/17 21:01:42;;;;;;;2.40;0.50;;;1.60;99.90;;;;;;4881779;24;20063;-79
2023/01/17 21:04:24;;;;;;;3.25;0.50;;;1.70;99.90;;;;;;4755144;30;20088;-79
2023/01/17 21:09:57;;;;;;;2.03;0.35;;;1.70;99.90;;;;;;4736660;30;20110;-80
2023/01/17 21:12:22;;;;;;;1.17;0.63;;;1.70;99.90;;;;;;4754604;30;20095;-80
2023/01/17 21:14:52;;;;;;;3.55;0.65;;;1.80;99.90;;;;;;4753171;30;20067;-80
2023/01/17 21:17:18;;;;;;;2.00;0.70;;;1.80;99.90;;;;;;4739011;30;20067;-79
2023/01/17 21:19:43;;;;;;;6.90;0.75;;;1.80;99.90;;;;;;4738665;30;20052;-79
2023/01/17 21:22:10;;;;;;;3.60;0.75;;;1.80;99.90;;;;;;4754828;30;20127;-79
2023/01/17 21:24:35;;;;;;;4.90;0.82;;;1.80;99.90;;;;;;4754660;30;20106;-79
2023/01/17 21:27:11;;;;;;;5.75;0.85;;;1.80;99.90;;;;;;4754735;30;20071;-79
2023/01/17 21:29:43;;;;;;;3.38;0.88;;;1.90;99.90;;;;;;4753044;30;20064;-79
2023/01/17 21:32:09;;;;;;;1.67;0.60;;;1.80;99.90;;;;;;4754751;30;20104;-79
2023/01/17 21:34:34;;;;;;;2.53;1.00;;;1.80;99.90;;;;;;4754489;30;20080;-78
2023/01/17 21:37:03;;;;;;;5.22;1.42;;;1.70;99.90;;;;;;4754431;30;20048;-79
2023/01/17 21:39:29;;;;;;;6.00;1.38;;;1.80;99.90;;;;;;4753366;30;20495;-78
2023/01/17 21:41:54;;;;;;;5.90;1.00;;;1.70;99.90;;;;;;4752337;30;20139;-79
2023/01/17 21:44:25;;;;;;;3.60;0.90;;;1.70;99.90;;;;;;4754559;30;20463;-79
2023/01/17 21:46:51;;;;;;;6.20;0.60;;;1.70;99.90;;;;;;4753479;30;20150;-79
2023/01/17 21:49:17;;;;;;;4.30;0.80;;;1.70;99.90;;;;;;4754586;30;20557;-79
2023/01/17 21:52:17;;;;;;;2.38;0.93;;;1.70;99.90;;;;;;4754552;30;20536;-79